sensor_id;sensor_type;location;lat;lon;timestamp;temperature;humidity
40932;DHT22;36257;46.052;12.540;2023-07-22T00:00:24;20.30;99.90
40932;DHT22;36257;46.052;12.540;2023-07-22T00:02:51;20.30;99.90
40932;DHT22;36257;46.052;12.540;2023-07-22T00:05:16;20.30;99.90
40932;DHT22;36257;46.052;12.540;2023-07-22T00:07:47;20.30;99.90
40932;DHT22;36257;46.052;12.540;2023-07-22T00:10:12;20.30;99.90
40932;DHT22;36257;46.052;12.540;2023-07-22T00:12:38;20.30;99.90
40932;DHT22;36257;46.052;12.540;2023-07-22T00:15:04;20.30;99.90
40932;DHT22;36257;46.052;12.540;2023-07-22T00:17:29;20.30;99.90
40932;DHT22;36257;46.052;12.540;2023-07-22T00:19:55;20.40;99.90
40932;DHT22;36257;46.052;12.540;2023-07-22T00:22:20;20.40;99.90
40932;DHT22;36257;46.052;12.540;2023-07-22T00:24:47;20.30;99.90
40932;DHT22;36257;46.052;12.540;2023-07-22T00:27:12;20.20;99.90
40932;DHT22;36257;46.052;12.540;2023-07-22T00:29:38;20.20;99.60
40932;DHT22;36257;46.052;12.540;2023-07-22T00:32:04;20.20;99.00
40932;DHT22;36257;46.052;12.540;2023-07-22T00:34:32;20.20;98.60
40932;DHT22;36257;46.052;12.540;2023-07-22T00:36:57;20.20;98.90
40932;DHT22;36257;46.052;12.540;2023-07-22T00:39:24;20.10;98.20
40932;DHT22;36257;46.052;12.540;2023-07-22T00:41:49;20.20;97.70
40932;DHT22;36257;46.052;12.540;2023-07-22T00:44:15;20.20;97.60
40932;DHT22;36257;46.052;12.540;2023-07-22T00:46:40;20.20;96.10
40932;DHT22;36257;46.052;12.540;2023-07-22T00:49:06;20.30;95.90
40932;DHT22;36257;46.052;12.540;2023-07-22T00:51:32;20.30;95.70
40932;DHT22;36257;46.052;12.540;2023-07-22T00:53:58;20.30;95.20
40932;DHT22;36257;46.052;12.540;2023-07-22T00:56:24;20.30;94.90
40932;DHT22;36257;46.052;12.540;2023-07-22T00:58:49;20.30;95.60
40932;DHT22;36257;46.052;12.540;2023-07-22T01:01:15;20.20;96.50
40932;DHT22;36257;46.052;12.540;2023-07-22T01:03:41;20.20;95.60
40932;DHT22;36257;46.052;12.540;2023-07-22T01:06:06;20.20;94.90
40932;DHT22;36257;46.052;12.540;2023-07-22T01:08:32;20.20;94.90
40932;DHT22;36257;46.052;12.540;2023-07-22T01:10:58;20.20;93.90
40932;DHT22;36257;46.052;12.540;2023-07-22T01:13:24;20.30;92.90
40932;DHT22;36257;46.052;12.540;2023-07-22T01:15:50;20.40;92.30
40932;DHT22;36257;46.052;12.540;2023-07-22T01:18:15;20.40;92.30
40932;DHT22;36257;46.052;12.540;2023-07-22T01:20:41;20.40;91.90
40932;DHT22;36257;46.052;12.540;2023-07-22T01:23:07;20.50;91.70
40932;DHT22;36257;46.052;12.540;2023-07-22T01:25:33;20.50;91.60
40932;DHT22;36257;46.052;12.540;2023-07-22T01:27:58;20.50;91.80
40932;DHT22;36257;46.052;12.540;2023-07-22T01:30:24;20.60;92.10
40932;DHT22;36257;46.052;12.540;2023-07-22T01:32:52;20.50;92.40
40932;DHT22;36257;46.052;12.540;2023-07-22T01:35:18;20.40;92.90
40932;DHT22;36257;46.052;12.540;2023-07-22T01:37:44;20.50;93.00
40932;DHT22;36257;46.052;12.540;2023-07-22T01:40:10;20.40;93.30
40932;DHT22;36257;46.052;12.540;2023-07-22T01:42:39;20.40;93.60
40932;DHT22;36257;46.052;12.540;2023-07-22T01:45:05;20.30;93.70
40932;DHT22;36257;46.052;12.540;2023-07-22T01:47:36;20.30;93.50
40932;DHT22;36257;46.052;12.540;2023-07-22T01:50:05;20.30;94.10
40932;DHT22;36257;46.052;12.540;2023-07-22T01:52:34;20.30;94.30
40932;DHT22;36257;46.052;12.540;2023-07-22T01:54:59;20.40;94.40
40932;DHT22;36257;46.052;12.540;2023-07-22T01:57:25;20.30;94.50
40932;DHT22;36257;46.052;12.540;2023-07-22T01:59:50;20.30;94.30
40932;DHT22;36257;46.052;12.540;2023-07-22T02:02:16;20.30;94.30
40932;DHT22;36257;46.052;12.540;2023-07-22T02:04:42;20.30;94.70
40932;DHT22;36257;46.052;12.540;2023-07-22T02:07:07;20.20;94.50
40932;DHT22;36257;46.052;12.540;2023-07-22T02:09:33;20.30;94.00
40932;DHT22;36257;46.052;12.540;2023-07-22T02:11:58;20.20;94.30
40932;DHT22;36257;46.052;12.540;2023-07-22T02:14:24;20.20;94.30
40932;DHT22;36257;46.052;12.540;2023-07-22T02:16:49;20.20;95.00
40932;DHT22;36257;46.052;12.540;2023-07-22T02:19:15;20.20;95.40
40932;DHT22;36257;46.052;12.540;2023-07-22T02:21:41;20.10;95.30
40932;DHT22;36257;46.052;12.540;2023-07-22T02:24:07;20.10;95.40
40932;DHT22;36257;46.052;12.540;2023-07-22T02:26:33;20.10;95.20
40932;DHT22;36257;46.052;12.540;2023-07-22T02:28:58;20.10;95.30
40932;DHT22;36257;46.052;12.540;2023-07-22T02:31:24;20.00;95.40
40932;DHT22;36257;46.052;12.540;2023-07-22T02:33:50;20.00;95.30
40932;DHT22;36257;46.052;12.540;2023-07-22T02:36:16;20.10;95.10
40932;DHT22;36257;46.052;12.540;2023-07-22T02:38:41;20.00;95.20
40932;DHT22;36257;46.052;12.540;2023-07-22T02:41:07;20.00;94.80
40932;DHT22;36257;46.052;12.540;2023-07-22T02:43:36;20.00;94.60
40932;DHT22;36257;46.052;12.540;2023-07-22T02:46:02;20.00;94.20
40932;DHT22;36257;46.052;12.540;2023-07-22T02:48:28;20.10;93.70
40932;DHT22;36257;46.052;12.540;2023-07-22T02:50:54;20.20;93.30
40932;DHT22;36257;46.052;12.540;2023-07-22T02:53:20;20.10;93.00
40932;DHT22;36257;46.052;12.540;2023-07-22T02:55:46;20.10;92.90
40932;DHT22;36257;46.052;12.540;2023-07-22T02:58:11;20.20;91.50
40932;DHT22;36257;46.052;12.540;2023-07-22T03:00:37;20.20;92.30
40932;DHT22;36257;46.052;12.540;2023-07-22T03:03:02;20.30;92.30
40932;DHT22;36257;46.052;12.540;2023-07-22T03:05:30;20.40;92.50
40932;DHT22;36257;46.052;12.540;2023-07-22T03:07:56;20.30;92.80
40932;DHT22;36257;46.052;12.540;2023-07-22T03:10:22;20.30;93.70
40932;DHT22;36257;46.052;12.540;2023-07-22T03:12:48;20.20;95.20
40932;DHT22;36257;46.052;12.540;2023-07-22T03:15:14;20.10;96.10
40932;DHT22;36257;46.052;12.540;2023-07-22T03:17:39;19.90;97.20
40932;DHT22;36257;46.052;12.540;2023-07-22T03:20:08;19.80;97.30
40932;DHT22;36257;46.052;12.540;2023-07-22T03:22:39;19.60;97.80
40932;DHT22;36257;46.052;12.540;2023-07-22T03:25:05;19.60;97.70
40932;DHT22;36257;46.052;12.540;2023-07-22T03:27:33;19.40;99.30
40932;DHT22;36257;46.052;12.540;2023-07-22T03:29:59;19.40;99.50
40932;DHT22;36257;46.052;12.540;2023-07-22T03:32:24;19.40;99.90
40932;DHT22;36257;46.052;12.540;2023-07-22T03:34:50;19.40;99.90
40932;DHT22;36257;46.052;12.540;2023-07-22T03:37:15;19.40;99.90
40932;DHT22;36257;46.052;12.540;2023-07-22T03:39:41;19.40;99.90
40932;DHT22;36257;46.052;12.540;2023-07-22T03:42:06;19.50;99.90
40932;DHT22;36257;46.052;12.540;2023-07-22T03:44:32;19.40;99.60
40932;DHT22;36257;46.052;12.540;2023-07-22T03:46:57;19.40;99.90
40932;DHT22;36257;46.052;12.540;2023-07-22T03:49:23;19.30;99.90
40932;DHT22;36257;46.052;12.540;2023-07-22T03:51:48;19.30;99.90
40932;DHT22;36257;46.052;12.540;2023-07-22T03:54:14;19.30;99.90
40932;DHT22;36257;46.052;12.540;2023-07-22T03:56:40;19.40;99.90
40932;DHT22;36257;46.052;12.540;2023-07-22T03:59:06;19.40;99.90
40932;DHT22;36257;46.052;12.540;2023-07-22T04:01:31;19.40;99.90
40932;DHT22;36257;46.052;12.540;2023-07-22T04:03:57;19.30;99.90
40932;DHT22;36257;46.052;12.540;2023-07-22T04:06:22;19.20;99.90
40932;DHT22;36257;46.052;12.540;2023-07-22T04:08:48;19.30;99.90
40932;DHT22;36257;46.052;12.540;2023-07-22T04:11:14;19.30;99.90
40932;DHT22;36257;46.052;12.540;2023-07-22T04:13:40;19.30;99.90
40932;DHT22;36257;46.052;12.540;2023-07-22T04:16:05;19.30;99.90
40932;DHT22;36257;46.052;12.540;2023-07-22T04:18:31;19.40;99.90
40932;DHT22;36257;46.052;12.540;2023-07-22T04:20:59;19.40;99.90
40932;DHT22;36257;46.052;12.540;2023-07-22T04:23:25;19.40;99.90
40932;DHT22;36257;46.052;12.540;2023-07-22T04:25:51;19.50;99.90
40932;DHT22;36257;46.052;12.540;2023-07-22T04:28:16;19.50;99.90
40932;DHT22;36257;46.052;12.540;2023-07-22T04:30:42;19.60;99.90
40932;DHT22;36257;46.052;12.540;2023-07-22T04:33:08;19.60;99.90
40932;DHT22;36257;46.052;12.540;2023-07-22T04:35:37;19.70;99.90
40932;DHT22;36257;46.052;12.540;2023-07-22T04:38:03;19.80;99.90
40932;DHT22;36257;46.052;12.540;2023-07-22T04:40:28;19.90;99.90
40932;DHT22;36257;46.052;12.540;2023-07-22T04:42:58;20.00;99.90
40932;DHT22;36257;46.052;12.540;2023-07-22T04:45:23;20.10;99.50
40932;DHT22;36257;46.052;12.540;2023-07-22T04:47:49;20.10;99.90
40932;DHT22;36257;46.052;12.540;2023-07-22T04:50:16;20.20;99.40
40932;DHT22;36257;46.052;12.540;2023-07-22T04:52:44;20.30;99.50
40932;DHT22;36257;46.052;12.540;2023-07-22T04:55:10;20.30;99.80
40932;DHT22;36257;46.052;12.540;2023-07-22T04:57:36;20.40;99.50
40932;DHT22;36257;46.052;12.540;2023-07-22T05:00:02;20.50;99.60
40932;DHT22;36257;46.052;12.540;2023-07-22T05:02:32;20.50;99.90
40932;DHT22;36257;46.052;12.540;2023-07-22T05:04:57;20.50;99.90
40932;DHT22;36257;46.052;12.540;2023-07-22T05:07:23;20.60;99.90
40932;DHT22;36257;46.052;12.540;2023-07-22T05:09:49;20.70;99.90
40932;DHT22;36257;46.052;12.540;2023-07-22T05:12:15;20.80;99.90
40932;DHT22;36257;46.052;12.540;2023-07-22T05:14:40;20.90;99.30
40932;DHT22;36257;46.052;12.540;2023-07-22T05:17:06;21.00;99.60
40932;DHT22;36257;46.052;12.540;2023-07-22T05:19:31;21.10;99.00
40932;DHT22;36257;46.052;12.540;2023-07-22T05:21:57;21.30;98.50
40932;DHT22;36257;46.052;12.540;2023-07-22T05:24:22;21.40;98.50
40932;DHT22;36257;46.052;12.540;2023-07-22T05:26:48;21.50;98.30
40932;DHT22;36257;46.052;12.540;2023-07-22T05:29:14;21.60;98.40
40932;DHT22;36257;46.052;12.540;2023-07-22T05:31:39;21.70;98.90
40932;DHT22;36257;46.052;12.540;2023-07-22T05:34:05;21.80;98.80
40932;DHT22;36257;46.052;12.540;2023-07-22T05:36:30;21.90;99.40
40932;DHT22;36257;46.052;12.540;2023-07-22T05:38:57;22.00;99.00
40932;DHT22;36257;46.052;12.540;2023-07-22T05:41:22;22.20;97.90
40932;DHT22;36257;46.052;12.540;2023-07-22T05:43:48;22.30;97.20
40932;DHT22;36257;46.052;12.540;2023-07-22T05:46:13;22.50;96.80
40932;DHT22;36257;46.052;12.540;2023-07-22T05:48:42;22.70;96.30
40932;DHT22;36257;46.052;12.540;2023-07-22T05:51:07;22.80;95.60
40932;DHT22;36257;46.052;12.540;2023-07-22T05:53:33;23.00;94.70
40932;DHT22;36257;46.052;12.540;2023-07-22T05:55:59;23.10;93.20
40932;DHT22;36257;46.052;12.540;2023-07-22T05:58:24;23.20;93.90
40932;DHT22;36257;46.052;12.540;2023-07-22T06:00:50;23.40;92.90
40932;DHT22;36257;46.052;12.540;2023-07-22T06:03:17;23.60;92.90
40932;DHT22;36257;46.052;12.540;2023-07-22T06:05:42;23.70;92.80
40932;DHT22;36257;46.052;12.540;2023-07-22T06:08:08;23.90;92.50
40932;DHT22;36257;46.052;12.540;2023-07-22T06:10:33;23.90;91.60
40932;DHT22;36257;46.052;12.540;2023-07-22T06:12:59;24.10;91.70
40932;DHT22;36257;46.052;12.540;2023-07-22T06:15:25;24.30;91.80
40932;DHT22;36257;46.052;12.540;2023-07-22T06:17:50;24.60;90.30
40932;DHT22;36257;46.052;12.540;2023-07-22T06:20:16;24.90;91.90
40932;DHT22;36257;46.052;12.540;2023-07-22T06:22:41;25.20;90.40
40932;DHT22;36257;46.052;12.540;2023-07-22T06:25:07;25.40;87.50
40932;DHT22;36257;46.052;12.540;2023-07-22T06:27:33;25.60;90.20
40932;DHT22;36257;46.052;12.540;2023-07-22T06:29:59;25.70;90.70
40932;DHT22;36257;46.052;12.540;2023-07-22T06:32:25;25.90;91.30
40932;DHT22;36257;46.052;12.540;2023-07-22T06:34:50;26.10;90.00
40932;DHT22;36257;46.052;12.540;2023-07-22T06:37:16;26.20;90.90
40932;DHT22;36257;46.052;12.540;2023-07-22T06:39:41;26.40;90.00
40932;DHT22;36257;46.052;12.540;2023-07-22T06:42:07;26.50;88.00
40932;DHT22;36257;46.052;12.540;2023-07-22T06:44:32;26.60;86.90
40932;DHT22;36257;46.052;12.540;2023-07-22T06:46:58;26.70;87.30
40932;DHT22;36257;46.052;12.540;2023-07-22T06:49:23;26.80;87.70
40932;DHT22;36257;46.052;12.540;2023-07-22T06:51:49;26.90;84.70
40932;DHT22;36257;46.052;12.540;2023-07-22T06:54:14;26.90;81.20
40932;DHT22;36257;46.052;12.540;2023-07-22T06:56:40;27.00;78.20
40932;DHT22;36257;46.052;12.540;2023-07-22T06:59:06;27.00;78.90
40932;DHT22;36257;46.052;12.540;2023-07-22T07:01:32;27.20;80.60
40932;DHT22;36257;46.052;12.540;2023-07-22T07:03:57;27.30;76.80
40932;DHT22;36257;46.052;12.540;2023-07-22T07:06:23;27.30;77.20
40932;DHT22;36257;46.052;12.540;2023-07-22T07:08:48;27.40;76.60
40932;DHT22;36257;46.052;12.540;2023-07-22T07:11:14;27.50;79.00
40932;DHT22;36257;46.052;12.540;2023-07-22T07:13:39;27.60;75.40
40932;DHT22;36257;46.052;12.540;2023-07-22T07:16:22;27.80;76.80
40932;DHT22;36257;46.052;12.540;2023-07-22T07:18:48;28.00;76.90
40932;DHT22;36257;46.052;12.540;2023-07-22T07:21:14;28.10;74.60
40932;DHT22;36257;46.052;12.540;2023-07-22T07:23:39;28.10;75.10
40932;DHT22;36257;46.052;12.540;2023-07-22T07:26:05;28.20;74.70
40932;DHT22;36257;46.052;12.540;2023-07-22T07:28:30;28.30;73.30
40932;DHT22;36257;46.052;12.540;2023-07-22T07:30:56;28.30;74.10
40932;DHT22;36257;46.052;12.540;2023-07-22T07:33:21;28.30;70.70
40932;DHT22;36257;46.052;12.540;2023-07-22T07:35:47;28.10;70.60
40932;DHT22;36257;46.052;12.540;2023-07-22T07:38:12;27.90;71.50
40932;DHT22;36257;46.052;12.540;2023-07-22T07:40:38;27.90;73.80
40932;DHT22;36257;46.052;12.540;2023-07-22T07:43:03;28.10;73.80
40932;DHT22;36257;46.052;12.540;2023-07-22T07:45:29;28.30;72.60
40932;DHT22;36257;46.052;12.540;2023-07-22T07:47:54;28.30;74.10
40932;DHT22;36257;46.052;12.540;2023-07-22T07:50:20;28.40;71.60
40932;DHT22;36257;46.052;12.540;2023-07-22T07:52:46;28.60;72.30
40932;DHT22;36257;46.052;12.540;2023-07-22T07:55:12;28.70;70.50
40932;DHT22;36257;46.052;12.540;2023-07-22T07:57:37;28.60;70.00
40932;DHT22;36257;46.052;12.540;2023-07-22T08:00:03;28.60;70.70
40932;DHT22;36257;46.052;12.540;2023-07-22T08:02:28;28.60;71.40
40932;DHT22;36257;46.052;12.540;2023-07-22T08:04:54;28.70;70.50
40932;DHT22;36257;46.052;12.540;2023-07-22T08:07:20;28.70;70.30
40932;DHT22;36257;46.052;12.540;2023-07-22T08:09:48;28.70;68.90
40932;DHT22;36257;46.052;12.540;2023-07-22T08:12:14;28.70;69.70
40932;DHT22;36257;46.052;12.540;2023-07-22T08:14:40;28.80;69.60
40932;DHT22;36257;46.052;12.540;2023-07-22T08:17:06;28.80;68.90
40932;DHT22;36257;46.052;12.540;2023-07-22T08:19:31;29.00;70.60
40932;DHT22;36257;46.052;12.540;2023-07-22T08:21:57;29.10;69.00
40932;DHT22;36257;46.052;12.540;2023-07-22T08:24:22;29.30;69.90
40932;DHT22;36257;46.052;12.540;2023-07-22T08:26:48;29.50;67.80
40932;DHT22;36257;46.052;12.540;2023-07-22T08:29:13;29.70;69.40
40932;DHT22;36257;46.052;12.540;2023-07-22T08:31:39;29.90;65.60
40932;DHT22;36257;46.052;12.540;2023-07-22T08:34:05;29.90;67.30
40932;DHT22;36257;46.052;12.540;2023-07-22T08:36:31;30.10;66.10
40932;DHT22;36257;46.052;12.540;2023-07-22T08:38:56;30.10;65.10
40932;DHT22;36257;46.052;12.540;2023-07-22T08:41:22;29.80;64.00
40932;DHT22;36257;46.052;12.540;2023-07-22T08:43:50;29.80;68.60
40932;DHT22;36257;46.052;12.540;2023-07-22T08:46:16;29.80;67.00
40932;DHT22;36257;46.052;12.540;2023-07-22T08:48:44;30.00;67.20
40932;DHT22;36257;46.052;12.540;2023-07-22T08:51:17;30.10;65.20
40932;DHT22;36257;46.052;12.540;2023-07-22T08:53:44;30.20;66.80
40932;DHT22;36257;46.052;12.540;2023-07-22T08:56:10;30.10;65.60
40932;DHT22;36257;46.052;12.540;2023-07-22T08:58:36;30.40;67.40
40932;DHT22;36257;46.052;12.540;2023-07-22T09:01:02;30.70;67.50
40932;DHT22;36257;46.052;12.540;2023-07-22T09:03:27;30.80;64.90
40932;DHT22;36257;46.052;12.540;2023-07-22T09:05:53;30.80;64.70
40932;DHT22;36257;46.052;12.540;2023-07-22T09:08:19;30.90;64.90
40932;DHT22;36257;46.052;12.540;2023-07-22T09:10:45;30.90;65.80
40932;DHT22;36257;46.052;12.540;2023-07-22T09:13:11;30.80;64.50
40932;DHT22;36257;46.052;12.540;2023-07-22T09:15:38;30.60;65.90
40932;DHT22;36257;46.052;12.540;2023-07-22T09:18:04;30.60;64.40
40932;DHT22;36257;46.052;12.540;2023-07-22T09:20:29;30.70;66.60
40932;DHT22;36257;46.052;12.540;2023-07-22T09:22:55;30.70;62.90
40932;DHT22;36257;46.052;12.540;2023-07-22T09:25:22;30.60;64.70
40932;DHT22;36257;46.052;12.540;2023-07-22T09:27:51;30.70;63.00
40932;DHT22;36257;46.052;12.540;2023-07-22T09:32:52;30.90;64.20
40932;DHT22;36257;46.052;12.540;2023-07-22T09:35:18;31.10;64.70
40932;DHT22;36257;46.052;12.540;2023-07-22T09:37:44;31.20;62.60
40932;DHT22;36257;46.052;12.540;2023-07-22T09:40:13;31.20;63.40
40932;DHT22;36257;46.052;12.540;2023-07-22T09:42:39;31.20;63.40
40932;DHT22;36257;46.052;12.540;2023-07-22T09:45:04;31.10;63.20
40932;DHT22;36257;46.052;12.540;2023-07-22T09:47:39;31.00;62.60
40932;DHT22;36257;46.052;12.540;2023-07-22T09:50:04;31.20;65.60
40932;DHT22;36257;46.052;12.540;2023-07-22T09:52:30;31.20;65.20
40932;DHT22;36257;46.052;12.540;2023-07-22T09:54:56;31.30;64.00
40932;DHT22;36257;46.052;12.540;2023-07-22T09:57:23;31.40;64.60
40932;DHT22;36257;46.052;12.540;2023-07-22T09:59:50;31.60;64.60
40932;DHT22;36257;46.052;12.540;2023-07-22T10:02:18;31.70;65.20
40932;DHT22;36257;46.052;12.540;2023-07-22T10:04:44;31.70;63.10
40932;DHT22;36257;46.052;12.540;2023-07-22T10:07:11;31.70;63.40
40932;DHT22;36257;46.052;12.540;2023-07-22T10:09:37;31.50;62.90
40932;DHT22;36257;46.052;12.540;2023-07-22T10:12:03;31.50;63.20
40932;DHT22;36257;46.052;12.540;2023-07-22T10:14:29;31.60;61.90
40932;DHT22;36257;46.052;12.540;2023-07-22T10:16:54;31.70;61.80
40932;DHT22;36257;46.052;12.540;2023-07-22T10:19:20;31.70;62.70
40932;DHT22;36257;46.052;12.540;2023-07-22T10:21:47;31.90;64.30
40932;DHT22;36257;46.052;12.540;2023-07-22T10:24:13;32.20;63.30
40932;DHT22;36257;46.052;12.540;2023-07-22T10:26:39;32.40;65.30
40932;DHT22;36257;46.052;12.540;2023-07-22T10:29:05;32.30;62.70
40932;DHT22;36257;46.052;12.540;2023-07-22T10:31:31;32.20;61.40
40932;DHT22;36257;46.052;12.540;2023-07-22T10:33:57;31.70;61.20
40932;DHT22;36257;46.052;12.540;2023-07-22T10:36:22;31.40;62.10
40932;DHT22;36257;46.052;12.540;2023-07-22T10:38:57;31.30;61.60
40932;DHT22;36257;46.052;12.540;2023-07-22T10:41:24;31.30;62.50
40932;DHT22;36257;46.052;12.540;2023-07-22T10:43:56;31.00;63.40
40932;DHT22;36257;46.052;12.540;2023-07-22T10:46:42;30.80;63.70
40932;DHT22;36257;46.052;12.540;2023-07-22T10:49:10;30.30;65.30
40932;DHT22;36257;46.052;12.540;2023-07-22T10:51:36;30.20;65.60
40932;DHT22;36257;46.052;12.540;2023-07-22T10:54:02;30.10;65.70
40932;DHT22;36257;46.052;12.540;2023-07-22T10:56:28;29.90;65.00
40932;DHT22;36257;46.052;12.540;2023-07-22T11:01:23;29.50;66.70
40932;DHT22;36257;46.052;12.540;2023-07-22T11:06:37;28.90;68.20
40932;DHT22;36257;46.052;12.540;2023-07-22T11:09:02;28.70;67.80
40932;DHT22;36257;46.052;12.540;2023-07-22T11:11:39;28.50;69.20
40932;DHT22;36257;46.052;12.540;2023-07-22T11:14:17;28.30;70.80
40932;DHT22;36257;46.052;12.540;2023-07-22T11:16:45;28.10;70.70
40932;DHT22;36257;46.052;12.540;2023-07-22T11:19:18;28.20;71.60
40932;DHT22;36257;46.052;12.540;2023-07-22T11:21:44;28.20;71.30
40932;DHT22;36257;46.052;12.540;2023-07-22T11:24:10;28.10;71.00
40932;DHT22;36257;46.052;12.540;2023-07-22T11:26:36;28.10;72.00
40932;DHT22;36257;46.052;12.540;2023-07-22T11:29:02;28.10;72.70
40932;DHT22;36257;46.052;12.540;2023-07-22T11:31:35;28.10;73.20
40932;DHT22;36257;46.052;12.540;2023-07-22T11:34:11;28.10;73.30
40932;DHT22;36257;46.052;12.540;2023-07-22T11:36:36;28.10;73.70
40932;DHT22;36257;46.052;12.540;2023-07-22T11:39:06;28.10;74.90
40932;DHT22;36257;46.052;12.540;2023-07-22T11:41:32;28.10;75.20
40932;DHT22;36257;46.052;12.540;2023-07-22T11:43:58;28.00;75.20
40932;DHT22;36257;46.052;12.540;2023-07-22T11:46:24;27.90;75.00
40932;DHT22;36257;46.052;12.540;2023-07-22T11:48:51;27.90;75.70
40932;DHT22;36257;46.052;12.540;2023-07-22T11:51:20;27.80;76.20
40932;DHT22;36257;46.052;12.540;2023-07-22T11:53:47;27.70;76.20
40932;DHT22;36257;46.052;12.540;2023-07-22T11:56:17;27.60;75.90
40932;DHT22;36257;46.052;12.540;2023-07-22T11:58:42;27.50;76.30
40932;DHT22;36257;46.052;12.540;2023-07-22T12:01:10;27.50;76.90
40932;DHT22;36257;46.052;12.540;2023-07-22T12:03:36;27.50;77.10
40932;DHT22;36257;46.052;12.540;2023-07-22T12:06:05;27.50;76.40
40932;DHT22;36257;46.052;12.540;2023-07-22T12:08:32;27.40;77.30
40932;DHT22;36257;46.052;12.540;2023-07-22T12:10:58;27.40;78.40
40932;DHT22;36257;46.052;12.540;2023-07-22T12:13:23;27.50;79.70
40932;DHT22;36257;46.052;12.540;2023-07-22T12:15:59;27.50;81.00
40932;DHT22;36257;46.052;12.540;2023-07-22T12:23:36;27.80;79.10
40932;DHT22;36257;46.052;12.540;2023-07-22T12:26:05;27.80;78.80
40932;DHT22;36257;46.052;12.540;2023-07-22T12:28:31;27.80;78.10
40932;DHT22;36257;46.052;12.540;2023-07-22T12:30:56;27.90;76.70
40932;DHT22;36257;46.052;12.540;2023-07-22T12:33:23;28.00;78.00
40932;DHT22;36257;46.052;12.540;2023-07-22T12:35:49;28.20;77.20
40932;DHT22;36257;46.052;12.540;2023-07-22T12:38:15;28.50;78.50
40932;DHT22;36257;46.052;12.540;2023-07-22T12:40:40;28.80;77.50
40932;DHT22;36257;46.052;12.540;2023-07-22T12:43:06;28.90;75.40
40932;DHT22;36257;46.052;12.540;2023-07-22T12:45:31;29.30;75.70
40932;DHT22;36257;46.052;12.540;2023-07-22T12:47:57;29.80;74.20
40932;DHT22;36257;46.052;12.540;2023-07-22T12:50:22;30.20;73.20
40932;DHT22;36257;46.052;12.540;2023-07-22T12:52:48;30.50;70.20
40932;DHT22;36257;46.052;12.540;2023-07-22T12:55:13;30.70;72.30
40932;DHT22;36257;46.052;12.540;2023-07-22T12:57:39;31.00;70.90
40932;DHT22;36257;46.052;12.540;2023-07-22T13:00:05;31.30;69.40
40932;DHT22;36257;46.052;12.540;2023-07-22T13:02:37;31.30;69.50
40932;DHT22;36257;46.052;12.540;2023-07-22T13:05:02;31.40;69.10
40932;DHT22;36257;46.052;12.540;2023-07-22T13:07:28;31.50;70.00
40932;DHT22;36257;46.052;12.540;2023-07-22T13:09:53;31.70;69.30
40932;DHT22;36257;46.052;12.540;2023-07-22T13:12:21;31.60;67.20
40932;DHT22;36257;46.052;12.540;2023-07-22T13:14:47;31.70;68.50
40932;DHT22;36257;46.052;12.540;2023-07-22T13:17:13;31.80;67.80
40932;DHT22;36257;46.052;12.540;2023-07-22T13:19:38;31.80;68.40
40932;DHT22;36257;46.052;12.540;2023-07-22T13:22:04;31.80;66.60
40932;DHT22;36257;46.052;12.540;2023-07-22T13:24:29;31.70;66.30
40932;DHT22;36257;46.052;12.540;2023-07-22T13:26:55;31.70;66.00
40932;DHT22;36257;46.052;12.540;2023-07-22T13:29:20;31.70;67.10
40932;DHT22;36257;46.052;12.540;2023-07-22T13:31:46;31.70;68.10
40932;DHT22;36257;46.052;12.540;2023-07-22T13:34:11;31.60;68.10
40932;DHT22;36257;46.052;12.540;2023-07-22T13:36:37;31.60;68.30
40932;DHT22;36257;46.052;12.540;2023-07-22T13:39:02;31.40;67.60
40932;DHT22;36257;46.052;12.540;2023-07-22T13:41:28;31.20;68.50
40932;DHT22;36257;46.052;12.540;2023-07-22T13:43:53;31.00;68.50
40932;DHT22;36257;46.052;12.540;2023-07-22T13:46:19;30.80;69.60
40932;DHT22;36257;46.052;12.540;2023-07-22T13:48:45;30.50;70.30
40932;DHT22;36257;46.052;12.540;2023-07-22T13:51:10;30.40;69.70
40932;DHT22;36257;46.052;12.540;2023-07-22T13:53:36;30.40;69.90
40932;DHT22;36257;46.052;12.540;2023-07-22T13:56:01;30.30;70.80
40932;DHT22;36257;46.052;12.540;2023-07-22T13:58:27;30.10;70.80
40932;DHT22;36257;46.052;12.540;2023-07-22T14:00:53;30.10;70.70
40932;DHT22;36257;46.052;12.540;2023-07-22T14:03:18;30.20;72.20
40932;DHT22;36257;46.052;12.540;2023-07-22T14:05:44;30.40;70.80
40932;DHT22;36257;46.052;12.540;2023-07-22T14:08:10;30.70;71.60
40932;DHT22;36257;46.052;12.540;2023-07-22T14:10:35;30.80;70.70
40932;DHT22;36257;46.052;12.540;2023-07-22T14:13:01;30.80;69.70
40932;DHT22;36257;46.052;12.540;2023-07-22T14:15:26;30.50;67.90
40932;DHT22;36257;46.052;12.540;2023-07-22T14:17:52;30.40;69.70
40932;DHT22;36257;46.052;12.540;2023-07-22T14:20:18;30.20;70.00
40932;DHT22;36257;46.052;12.540;2023-07-22T14:22:45;30.00;72.60
40932;DHT22;36257;46.052;12.540;2023-07-22T14:25:10;29.80;70.70
40932;DHT22;36257;46.052;12.540;2023-07-22T14:27:39;30.00;71.60
40932;DHT22;36257;46.052;12.540;2023-07-22T14:33:08;30.20;68.60
40932;DHT22;36257;46.052;12.540;2023-07-22T14:35:33;30.30;69.30
40932;DHT22;36257;46.052;12.540;2023-07-22T14:38:00;30.40;68.90
40932;DHT22;36257;46.052;12.540;2023-07-22T14:40:26;30.40;69.60
40932;DHT22;36257;46.052;12.540;2023-07-22T14:42:52;30.20;70.80
40932;DHT22;36257;46.052;12.540;2023-07-22T14:45:17;30.20;71.30
40932;DHT22;36257;46.052;12.540;2023-07-22T14:47:43;30.30;71.80
40932;DHT22;36257;46.052;12.540;2023-07-22T14:50:09;30.40;73.10
40932;DHT22;36257;46.052;12.540;2023-07-22T14:52:35;30.50;72.90
40932;DHT22;36257;46.052;12.540;2023-07-22T14:55:01;30.40;74.40
40932;DHT22;36257;46.052;12.540;2023-07-22T14:57:26;30.40;73.50
40932;DHT22;36257;46.052;12.540;2023-07-22T14:59:55;30.40;75.60
40932;DHT22;36257;46.052;12.540;2023-07-22T15:02:21;30.20;73.70
40932;DHT22;36257;46.052;12.540;2023-07-22T15:04:47;30.20;73.90
40932;DHT22;36257;46.052;12.540;2023-07-22T15:07:13;30.10;74.40
40932;DHT22;36257;46.052;12.540;2023-07-22T15:09:38;30.30;75.30
40932;DHT22;36257;46.052;12.540;2023-07-22T15:12:04;30.20;75.30
40932;DHT22;36257;46.052;12.540;2023-07-22T15:14:30;29.90;77.40
40932;DHT22;36257;46.052;12.540;2023-07-22T15:16:56;29.80;76.20
40932;DHT22;36257;46.052;12.540;2023-07-22T15:19:21;29.70;76.80
40932;DHT22;36257;46.052;12.540;2023-07-22T15:21:48;29.70;75.90
40932;DHT22;36257;46.052;12.540;2023-07-22T15:24:14;29.60;76.10